Main page
METAR-TAF:

METAR-TAF

Airports :

Dundee, Scotland

Dundee Airport

latitude: 56-27N, longitude: 003-01W, elevation: 4 m

Current weather observation

The report was made 32 minutes ago, at 17:20 UTC
Wind 9 kt from the East
Temperature 8°C
Humidity 76%
Pressure 1014 hPa
Visibility 10 km or more
Few clouds at a height of 4000 ft

METAR: EGPN 281720Z 09009KT 9999 FEW040 08/04 Q1014

Time: 18:52 (17:52 UTC)

Forecast

The report was made 54 minutes ago, at 16:58 UTC
Forecast valid from 28 at 18 UTC to 28 at 20 UTC
Wind 9 kt from the East/Southeast
Visibility 10 km or more
Scattered clouds at a height of 4500 ft

TAF: EGPN 281658Z 2818/2820 12009KT 9999 SCT045

Weather observations and forecasts of more than 4000 airports (METAR and TAF reports).

The available stations are represented by yellow and red dots on the map.

Hover mouse over dot to see the name of the station.

Then click to see weather observations and forecasts.

To change the map : click on the green buttons with a black cross to zoom in, on the green button with a dash to zoom out, or on the green arrows for adjacent maps.


METAR-TAF: